METAR Data
IDs: Format: Raw Decoded Include TAF

Data at: 0016 UTC 30 May 2020

PTTP 292352Z 06005KT 15SM SCT018 BKN300 31/27 A2997 RMK SLP149 8/101 T03110267 10311 20247 50000